Time,TemperatureF,DewpointF,PressureIn,WindDirection,WindDirectionDegrees,WindSpeedMPH,WindSpeedGustMPH,Humidity,HourlyPrecipIn,Conditions,Clouds,dailyrainin,SoftwareType,DateUTC
2013-12-24 00:12:00,-7.0,-13.0,30.47,North,-999,-999.0,-999.0,75,-99.99,,,-99.99,,2013-12-24 06:12:00,
2013-12-24 00:22:00,-7.0,-13.0,30.47,North,-999,-999.0,-999.0,75,-99.99,,,-99.99,,2013-12-24 06:22:00,
2013-12-24 00:42:00,-7.0,-13.0,30.47,North,-999,-999.0,-999.0,75,-99.99,,,-99.99,,2013-12-24 06:42:00,
2013-12-24 00:52:00,-8.0,-14.0,30.47,North,-999,-999.0,-999.0,75,-99.99,,,-99.99,,2013-12-24 06:52:00,
2013-12-24 01:11:00,-8.0,-14.0,30.47,North,-999,-999.0,-999.0,75,-99.99,,,-99.99,,2013-12-24 07:11:00,
2013-12-24 01:22:00,-8.0,-14.0,30.47,North,-999,-999.0,-999.0,75,-99.99,,,-99.99,,2013-12-24 07:22:00,
2013-12-24 01:42:00,-9.0,-15.0,30.47,North,-999,-999.0,-999.0,75,-99.99,,,-99.99,,2013-12-24 07:42:00,
2013-12-24 01:52:00,-9.0,-15.0,30.47,North,-999,-999.0,-999.0,75,-99.99,,,-99.99,,2013-12-24 07:52:00,
2013-12-24 02:11:00,-8.0,-14.0,30.47,North,-999,-999.0,-999.0,75,-99.99,,,-99.99,,2013-12-24 08:11:00,
2013-12-24 02:22:00,-9.0,-15.0,30.47,North,-999,-999.0,-999.0,75,-99.99,,,-99.99,,2013-12-24 08:22:00,
2013-12-24 02:42:00,-9.0,-15.0,30.47,North,-999,-999.0,-999.0,75,-99.99,,,-99.99,,2013-12-24 08:42:00,
2013-12-24 02:52:00,-9.0,-15.0,30.50,North,-999,-999.0,-999.0,75,-99.99,,,-99.99,,2013-12-24 08:52:00,
2013-12-24 03:11:00,-9.0,-15.0,30.50,North,-999,-999.0,-999.0,75,-99.99,,,-99.99,,2013-12-24 09:11:00,
2013-12-24 03:22:00,-10.0,-16.0,30.47,North,-999,-999.0,-999.0,75,-99.99,,,-99.99,,2013-12-24 09:22:00,
2013-12-24 03:43:00,-10.0,-16.0,30.47,North,-999,-999.0,-999.0,75,-99.99,,,-99.99,,2013-12-24 09:43:00,
2013-12-24 03:53:00,-10.0,-16.0,30.47,North,-999,-999.0,-999.0,75,-99.99,,,-99.99,,2013-12-24 09:53:00,
2013-12-24 04:12:00,-11.0,-17.0,30.47,North,-999,-999.0,-999.0,75,-99.99,,,-99.99,,2013-12-24 10:12:00,
2013-12-24 04:23:00,-12.0,-18.0,30.47,North,-999,-999.0,-999.0,75,-99.99,,,-99.99,,2013-12-24 10:23:00,
2013-12-24 04:43:00,-13.0,-19.0,30.47,North,-999,-999.0,-999.0,75,-99.99,,,-99.99,,2013-12-24 10:43:00,
2013-12-24 04:52:00,-14.0,-20.0,30.47,North,-999,-999.0,-999.0,75,-99.99,,,-99.99,,2013-12-24 10:52:00,
2013-12-24 05:12:00,-14.0,-20.0,30.47,North,-999,-999.0,-999.0,75,-99.99,,,-99.99,,2013-12-24 11:12:00,
2013-12-24 05:22:00,-14.0,-20.0,30.47,North,-999,-999.0,-999.0,75,-99.99,,,-99.99,,2013-12-24 11:22:00,
2013-12-24 05:42:00,-14.0,-20.0,30.47,North,-999,-999.0,-999.0,75,-99.99,,,-99.99,,2013-12-24 11:42:00,
2013-12-24 05:52:00,-14.0,-20.0,30.47,North,-999,-999.0,-999.0,75,-99.99,,,-99.99,,2013-12-24 11:52:00,
2013-12-24 06:11:00,-14.0,-20.0,30.47,North,-999,-999.0,-999.0,75,-99.99,,,-99.99,,2013-12-24 12:11:00,
2013-12-24 06:22:00,-14.0,-20.0,30.47,North,-999,-999.0,-999.0,75,-99.99,,,-99.99,,2013-12-24 12:22:00,
2013-12-24 06:42:00,-15.0,-21.0,30.44,North,-999,-999.0,-999.0,75,-99.99,,,-99.99,,2013-12-24 12:42:00,
2013-12-24 06:52:00,-16.0,-22.0,30.47,North,-999,-999.0,-999.0,75,-99.99,,,-99.99,,2013-12-24 12:52:00,
2013-12-24 07:22:00,-14.0,-20.0,30.47,North,-999,-999.0,-999.0,75,-99.99,,,-99.99,,2013-12-24 13:22:00,
2013-12-24 07:42:00,-12.0,-18.0,30.47,North,-999,-999.0,-999.0,75,-99.99,,,-99.99,,2013-12-24 13:42:00,
2013-12-24 07:52:00,-12.0,-18.0,30.47,North,-999,-999.0,-999.0,75,-99.99,,,-99.99,,2013-12-24 13:52:00,
2013-12-24 08:02:00,-12.0,-18.0,30.47,North,-999,-999.0,-999.0,75,-99.99,,,-99.99,,2013-12-24 14:02:00,
2013-12-24 08:11:00,-12.0,-18.0,30.47,North,-999,-999.0,-999.0,75,-99.99,,,-99.99,,2013-12-24 14:11:00,
2013-12-24 08:22:00,-13.0,-19.0,30.47,North,-999,-999.0,-999.0,75,-99.99,,,-99.99,,2013-12-24 14:22:00,
2013-12-24 08:42:00,-13.0,-19.0,30.47,North,-999,-999.0,-999.0,75,-99.99,,,-99.99,,2013-12-24 14:42:00,
2013-12-24 08:52:00,-12.0,-18.0,30.47,North,-999,-999.0,-999.0,75,-99.99,,,-99.99,,2013-12-24 14:52:00,
2013-12-24 09:11:00,-10.0,-16.0,30.44,North,-999,-999.0,-999.0,75,-99.99,,,-99.99,,2013-12-24 15:11:00,
2013-12-24 09:22:00,-10.0,-16.0,30.44,North,-999,-999.0,-999.0,75,-99.99,,,-99.99,,2013-12-24 15:22:00,
2013-12-24 09:43:00,-6.0,-12.0,30.47,North,-999,-999.0,-999.0,75,-99.99,,,-99.99,,2013-12-24 15:43:00,
2013-12-24 09:54:00,-6.0,-12.0,30.47,North,-999,-999.0,-999.0,75,-99.99,,,-99.99,,2013-12-24 15:54:00,
2013-12-24 10:12:00,-4.0,-10.0,30.47,North,-999,-999.0,-999.0,75,-99.99,,,-99.99,,2013-12-24 16:12:00,
2013-12-24 10:23:00,-3.0,-9.0,30.44,North,-999,-999.0,-999.0,75,-99.99,,,-99.99,,2013-12-24 16:23:00,
2013-12-24 10:43:00,-1.0,-7.0,30.44,North,-999,-999.0,-999.0,75,-99.99,,,-99.99,,2013-12-24 16:43:00,
2013-12-24 10:53:00,-1.0,-7.0,30.44,North,-999,-999.0,-999.0,75,-99.99,,,-99.99,,2013-12-24 16:53:00,
2013-12-24 11:12:00,0.0,-6.0,30.44,North,-999,-999.0,-999.0,75,-99.99,,,-99.99,,2013-12-24 17:12:00,
2013-12-24 11:22:00,0.0,-6.0,30.44,North,-999,-999.0,-999.0,75,-99.99,,,-99.99,,2013-12-24 17:22:00,
2013-12-24 11:42:00,2.0,-4.0,30.44,North,-999,-999.0,-999.0,75,-99.99,,,-99.99,,2013-12-24 17:42:00,
2013-12-24 11:52:00,3.0,-3.0,30.44,North,-999,-999.0,-999.0,75,-99.99,,,-99.99,,2013-12-24 17:52:00,
2013-12-24 12:12:00,5.0,-1.0,30.41,North,-999,-999.0,-999.0,75,-99.99,,,-99.99,,2013-12-24 18:12:00,
2013-12-24 12:22:00,5.0,-1.0,30.41,North,-999,-999.0,-999.0,75,-99.99,,,-99.99,,2013-12-24 18:22:00,
2013-12-24 12:52:00,6.0,0.0,30.38,North,-999,-999.0,-999.0,75,-99.99,,,-99.99,,2013-12-24 18:52:00,
2013-12-24 13:12:00,6.0,0.0,30.35,North,-999,-999.0,-999.0,75,-99.99,,,-99.99,,2013-12-24 19:12:00,
2013-12-24 13:22:00,7.0,1.0,30.38,North,-999,-999.0,-999.0,75,-99.99,,,-99.99,,2013-12-24 19:22:00,
2013-12-24 13:42:00,10.0,4.0,30.35,North,-999,-999.0,-999.0,75,-99.99,,,-99.99,,2013-12-24 19:42:00,
2013-12-24 13:52:00,11.0,5.0,30.35,North,-999,-999.0,-999.0,75,-99.99,,,-99.99,,2013-12-24 19:52:00,
2013-12-24 14:12:00,11.0,5.0,30.35,North,-999,-999.0,-999.0,75,-99.99,,,-99.99,,2013-12-24 20:12:00,
2013-12-24 14:22:00,11.0,5.0,30.35,North,-999,-999.0,-999.0,75,-99.99,,,-99.99,,2013-12-24 20:22:00,
2013-12-24 14:42:00,10.0,4.0,30.32,North,-999,-999.0,-999.0,75,-99.99,,,-99.99,,2013-12-24 20:42:00,
2013-12-24 14:52:00,11.0,5.0,30.35,North,-999,-999.0,-999.0,75,-99.99,,,-99.99,,2013-12-24 20:52:00,
2013-12-24 15:11:00,12.0,6.0,30.38,North,-999,-999.0,-999.0,75,-99.99,,,-99.99,,2013-12-24 21:11:00,
2013-12-24 15:22:00,13.0,7.0,30.38,North,-999,-999.0,-999.0,75,-99.99,,,-99.99,,2013-12-24 21:22:00,
2013-12-24 15:43:00,12.0,6.0,30.38,North,-999,-999.0,-999.0,75,-99.99,,,-99.99,,2013-12-24 21:43:00,
2013-12-24 15:53:00,12.0,6.0,30.35,North,-999,-999.0,-999.0,75,-99.99,,,-99.99,,2013-12-24 21:53:00,
2013-12-24 16:12:00,12.0,6.0,30.35,North,-999,-999.0,-999.0,75,-99.99,,,-99.99,,2013-12-24 22:12:00,
2013-12-24 16:23:00,11.0,5.0,30.38,North,-999,-999.0,-999.0,75,-99.99,,,-99.99,,2013-12-24 22:23:00,
2013-12-24 16:42:00,11.0,5.0,30.38,North,-999,-999.0,-999.0,75,-99.99,,,-99.99,,2013-12-24 22:42:00,
2013-12-24 16:53:00,11.0,5.0,30.38,North,-999,-999.0,-999.0,75,-99.99,,,-99.99,,2013-12-24 22:53:00,
2013-12-24 17:12:00,11.0,5.0,30.38,North,-999,-999.0,-999.0,75,-99.99,,,-99.99,,2013-12-24 23:12:00,
2013-12-24 17:21:00,11.0,5.0,30.35,North,-999,-999.0,-999.0,75,-99.99,,,-99.99,,2013-12-24 23:21:00,
2013-12-24 17:42:00,11.0,5.0,30.35,North,-999,-999.0,-999.0,75,-99.99,,,-99.99,,2013-12-24 23:42:00,
2013-12-24 17:53:00,11.0,5.0,30.35,North,-999,-999.0,-999.0,75,-99.99,,,-99.99,,2013-12-24 23:53:00,
2013-12-24 18:11:00,11.0,5.0,30.32,North,-999,-999.0,-999.0,75,-99.99,,,-99.99,,2013-12-25 00:11:00,
2013-12-24 18:42:00,11.0,5.0,30.32,North,-999,-999.0,-999.0,75,-99.99,,,-99.99,,2013-12-25 00:42:00,
2013-12-24 18:52:00,11.0,5.0,30.32,North,-999,-999.0,-999.0,75,-99.99,,,-99.99,,2013-12-25 00:52:00,
2013-12-24 19:11:00,11.0,5.0,30.32,North,-999,-999.0,-999.0,75,-99.99,,,-99.99,,2013-12-25 01:11:00,
2013-12-24 19:21:00,11.0,5.0,30.32,North,-999,-999.0,-999.0,75,-99.99,,,-99.99,,2013-12-25 01:21:00,
2013-12-24 19:42:00,11.0,5.0,30.32,North,-999,-999.0,-999.0,75,-99.99,,,-99.99,,2013-12-25 01:42:00,
2013-12-24 19:52:00,11.0,5.0,30.32,North,-999,-999.0,-999.0,75,-99.99,,,-99.99,,2013-12-25 01:52:00,
2013-12-24 20:11:00,11.0,5.0,30.32,North,-999,-999.0,-999.0,75,-99.99,,,-99.99,,2013-12-25 02:11:00,
2013-12-24 20:22:00,11.0,5.0,30.32,North,-999,-999.0,-999.0,75,-99.99,,,-99.99,,2013-12-25 02:22:00,
2013-12-24 20:42:00,11.0,5.0,30.32,North,-999,-999.0,-999.0,75,-99.99,,,-99.99,,2013-12-25 02:42:00,
2013-12-24 20:53:00,10.0,4.0,30.29,North,-999,-999.0,-999.0,75,-99.99,,,-99.99,,2013-12-25 02:53:00,
2013-12-24 21:12:00,10.0,4.0,30.29,North,-999,-999.0,-999.0,75,-99.99,,,-99.99,,2013-12-25 03:12:00,
2013-12-24 21:22:00,10.0,4.0,30.29,North,-999,-999.0,-999.0,75,-99.99,,,-99.99,,2013-12-25 03:22:00,
2013-12-24 21:43:00,10.0,4.0,30.26,North,-999,-999.0,-999.0,75,-99.99,,,-99.99,,2013-12-25 03:43:00,
2013-12-24 21:53:00,10.0,4.0,30.26,North,-999,-999.0,-999.0,75,-99.99,,,-99.99,,2013-12-25 03:53:00,
2013-12-24 22:23:00,10.0,4.0,30.26,North,-999,-999.0,-999.0,75,-99.99,,,-99.99,,2013-12-25 04:23:00,
2013-12-24 22:43:00,10.0,4.0,30.26,North,-999,-999.0,-999.0,75,-99.99,,,-99.99,,2013-12-25 04:43:00,
2013-12-24 22:53:00,10.0,4.0,30.26,North,-999,-999.0,-999.0,75,-99.99,,,-99.99,,2013-12-25 04:53:00,
2013-12-24 23:12:00,10.0,4.0,30.26,North,-999,-999.0,-999.0,75,-99.99,,,-99.99,,2013-12-25 05:12:00,
2013-12-24 23:22:00,10.0,4.0,30.23,North,-999,-999.0,-999.0,75,-99.99,,,-99.99,,2013-12-25 05:22:00,
2013-12-24 23:42:00,10.0,4.0,30.23,North,-999,-999.0,-999.0,75,-99.99,,,-99.99,,2013-12-25 05:42:00,
2013-12-24 23:53:00,10.0,4.0,30.23,North,-999,-999.0,-999.0,75,-99.99,,,-99.99,,2013-12-25 05:53:00,